Fox Chase Manor, Pennsylvania
Current Conditions -  °F | °C
As of 10:54 AM on Thursday 18 Dec 2014 (Local Time) from KPNE Reporting Station
Overcast Overcast  
Wind Chill: 31°   Ceiling: 3900
Heat Index: 39°   Visibility: 10mi
Dew Point: 21°   Wind: 14mph
Humidity: 49%   Direction: 280°W
Pressure: 30.08"   Gusts: NA
Location:  40.1039°N, 75.1072°W
Report Text: KPNE 181554Z AUTO 28012KT 10SM OVC039 04/M06 A3008 RMK AO2 SLP186 T00391061 TSNO $
Loading
Personal Weather Stations






























Interactive Weather Map New forecast layout! Learn more

10-Day Weather Forecast

Advertisements
Track Severe Weather on mobile